sensor_id;sensor_type;location;lat;lon;timestamp;pressure;altitude;pressure_sealevel;temperature;humidity
21828;BME280;11076;47.942;11.804;2022-10-16T00:03:16;94416.28;;;10.99;100.00
21828;BME280;11076;47.942;11.804;2022-10-16T00:08:18;94419.13;;;11.04;100.00
21828;BME280;11076;47.942;11.804;2022-10-16T00:13:20;94418.66;;;11.07;100.00
21828;BME280;11076;47.942;11.804;2022-10-16T00:18:24;94427.28;;;11.09;100.00
21828;BME280;11076;47.942;11.804;2022-10-16T00:23:26;94428.78;;;11.05;100.00
21828;BME280;11076;47.942;11.804;2022-10-16T00:28:29;94429.44;;;11.01;100.00
21828;BME280;11076;47.942;11.804;2022-10-16T00:33:33;94433.91;;;11.07;100.00
21828;BME280;11076;47.942;11.804;2022-10-16T00:38:35;94441.25;;;11.11;100.00
21828;BME280;11076;47.942;11.804;2022-10-16T00:53:57;94436.28;;;11.15;100.00
21828;BME280;11076;47.942;11.804;2022-10-16T00:59:02;94441.66;;;11.15;100.00
21828;BME280;11076;47.942;11.804;2022-10-16T01:04:07;94440.47;;;11.29;100.00
21828;BME280;11076;47.942;11.804;2022-10-16T01:09:14;94441.53;;;11.28;100.00
21828;BME280;11076;47.942;11.804;2022-10-16T01:14:53;94434.31;;;11.29;100.00
21828;BME280;11076;47.942;11.804;2022-10-16T01:20:20;94436.38;;;11.27;100.00
21828;BME280;11076;47.942;11.804;2022-10-16T01:30:57;94446.22;;;11.08;100.00
21828;BME280;11076;47.942;11.804;2022-10-16T01:36:05;94454.94;;;11.03;100.00
21828;BME280;11076;47.942;11.804;2022-10-16T01:41:17;94454.84;;;11.10;100.00
21828;BME280;11076;47.942;11.804;2022-10-16T01:46:22;94445.88;;;11.04;100.00
21828;BME280;11076;47.942;11.804;2022-10-16T01:51:27;94460.34;;;10.97;100.00
21828;BME280;11076;47.942;11.804;2022-10-16T01:56:32;94460.84;;;10.87;100.00
21828;BME280;11076;47.942;11.804;2022-10-16T02:01:38;94451.06;;;10.74;100.00
21828;BME280;11076;47.942;11.804;2022-10-16T02:06:41;94456.13;;;10.57;100.00
21828;BME280;11076;47.942;11.804;2022-10-16T02:11:44;94462.13;;;10.52;100.00
21828;BME280;11076;47.942;11.804;2022-10-16T02:16:46;94460.75;;;10.43;100.00
21828;BME280;11076;47.942;11.804;2022-10-16T02:21:54;94459.75;;;10.38;100.00
21828;BME280;11076;47.942;11.804;2022-10-16T02:27:40;94450.53;;;10.33;100.00
21828;BME280;11076;47.942;11.804;2022-10-16T02:32:46;94450.31;;;10.28;100.00
21828;BME280;11076;47.942;11.804;2022-10-16T02:37:50;94450.56;;;10.27;100.00
21828;BME280;11076;47.942;11.804;2022-10-16T02:42:54;94462.53;;;10.18;100.00
21828;BME280;11076;47.942;11.804;2022-10-16T02:47:57;94465.84;;;10.13;100.00
21828;BME280;11076;47.942;11.804;2022-10-16T02:53:00;94453.56;;;10.05;100.00
21828;BME280;11076;47.942;11.804;2022-10-16T02:58:02;94461.81;;;9.97;100.00
21828;BME280;11076;47.942;11.804;2022-10-16T03:03:05;94463.69;;;9.90;100.00
21828;BME280;11076;47.942;11.804;2022-10-16T03:08:07;94469.47;;;9.87;100.00
21828;BME280;11076;47.942;11.804;2022-10-16T03:13:10;94466.19;;;9.85;100.00
21828;BME280;11076;47.942;11.804;2022-10-16T03:18:12;94473.16;;;9.86;100.00
21828;BME280;11076;47.942;11.804;2022-10-16T03:23:15;94467.56;;;9.94;100.00
21828;BME280;11076;47.942;11.804;2022-10-16T03:28:17;94460.09;;;10.09;100.00
21828;BME280;11076;47.942;11.804;2022-10-16T03:33:19;94452.63;;;10.25;100.00
21828;BME280;11076;47.942;11.804;2022-10-16T03:38:22;94468.84;;;10.30;100.00
21828;BME280;11076;47.942;11.804;2022-10-16T03:43:24;94473.06;;;10.44;100.00
21828;BME280;11076;47.942;11.804;2022-10-16T03:48:26;94482.53;;;10.47;100.00
21828;BME280;11076;47.942;11.804;2022-10-16T03:53:29;94497.34;;;10.43;100.00
21828;BME280;11076;47.942;11.804;2022-10-16T03:58:31;94487.47;;;10.43;100.00
21828;BME280;11076;47.942;11.804;2022-10-16T04:03:34;94488.28;;;10.44;100.00
21828;BME280;11076;47.942;11.804;2022-10-16T04:08:36;94482.13;;;10.43;100.00
21828;BME280;11076;47.942;11.804;2022-10-16T04:13:39;94497.72;;;10.46;100.00
21828;BME280;11076;47.942;11.804;2022-10-16T04:18:41;94487.09;;;10.40;100.00
21828;BME280;11076;47.942;11.804;2022-10-16T04:23:43;94491.63;;;10.39;100.00
21828;BME280;11076;47.942;11.804;2022-10-16T04:28:46;94483.59;;;10.39;100.00
21828;BME280;11076;47.942;11.804;2022-10-16T04:33:48;94483.75;;;10.44;100.00
21828;BME280;11076;47.942;11.804;2022-10-16T04:38:50;94505.50;;;10.54;100.00
21828;BME280;11076;47.942;11.804;2022-10-16T04:43:53;94497.22;;;10.63;100.00
21828;BME280;11076;47.942;11.804;2022-10-16T04:48:55;94489.22;;;10.63;100.00
21828;BME280;11076;47.942;11.804;2022-10-16T04:53:57;94493.09;;;10.67;100.00
21828;BME280;11076;47.942;11.804;2022-10-16T04:59:00;94486.88;;;10.73;100.00
21828;BME280;11076;47.942;11.804;2022-10-16T05:04:02;94479.44;;;10.75;100.00
21828;BME280;11076;47.942;11.804;2022-10-16T05:09:05;94478.97;;;10.85;100.00
21828;BME280;11076;47.942;11.804;2022-10-16T05:14:07;94476.41;;;10.97;100.00
21828;BME280;11076;47.942;11.804;2022-10-16T05:19:10;94487.09;;;10.97;100.00
21828;BME280;11076;47.942;11.804;2022-10-16T05:24:28;94481.88;;;11.02;100.00
21828;BME280;11076;47.942;11.804;2022-10-16T05:29:31;94473.59;;;11.10;100.00
21828;BME280;11076;47.942;11.804;2022-10-16T05:34:34;94479.53;;;11.12;100.00
21828;BME280;11076;47.942;11.804;2022-10-16T05:39:36;94486.56;;;11.31;100.00
21828;BME280;11076;47.942;11.804;2022-10-16T05:44:39;94489.13;;;11.45;100.00
21828;BME280;11076;47.942;11.804;2022-10-16T05:49:41;94494.94;;;11.60;100.00
21828;BME280;11076;47.942;11.804;2022-10-16T05:54:43;94488.00;;;11.71;100.00
21828;BME280;11076;47.942;11.804;2022-10-16T05:59:46;94502.38;;;11.77;100.00
21828;BME280;11076;47.942;11.804;2022-10-16T06:04:48;94514.66;;;11.84;100.00
21828;BME280;11076;47.942;11.804;2022-10-16T06:09:51;94528.16;;;11.96;100.00
21828;BME280;11076;47.942;11.804;2022-10-16T06:14:54;94535.69;;;12.06;100.00
21828;BME280;11076;47.942;11.804;2022-10-16T06:19:56;94551.34;;;12.21;100.00
21828;BME280;11076;47.942;11.804;2022-10-16T06:24:59;94545.06;;;12.45;100.00
21828;BME280;11076;47.942;11.804;2022-10-16T06:30:01;94539.44;;;12.65;100.00
21828;BME280;11076;47.942;11.804;2022-10-16T06:35:06;94533.06;;;12.78;100.00
21828;BME280;11076;47.942;11.804;2022-10-16T06:40:08;94548.28;;;12.96;100.00
21828;BME280;11076;47.942;11.804;2022-10-16T06:45:10;94555.00;;;13.17;100.00
21828;BME280;11076;47.942;11.804;2022-10-16T06:50:13;94552.25;;;13.59;100.00
21828;BME280;11076;47.942;11.804;2022-10-16T06:55:15;94560.66;;;13.51;100.00
21828;BME280;11076;47.942;11.804;2022-10-16T07:00:19;94559.97;;;13.67;100.00
21828;BME280;11076;47.942;11.804;2022-10-16T07:05:21;94558.53;;;14.00;100.00
21828;BME280;11076;47.942;11.804;2022-10-16T07:10:23;94563.88;;;14.24;100.00
21828;BME280;11076;47.942;11.804;2022-10-16T07:15:26;94579.84;;;14.42;100.00
21828;BME280;11076;47.942;11.804;2022-10-16T07:20:29;94585.75;;;14.68;100.00
21828;BME280;11076;47.942;11.804;2022-10-16T07:25:31;94587.75;;;14.73;100.00
21828;BME280;11076;47.942;11.804;2022-10-16T07:30:35;94593.03;;;14.96;100.00
21828;BME280;11076;47.942;11.804;2022-10-16T07:35:49;94595.59;;;15.20;100.00
21828;BME280;11076;47.942;11.804;2022-10-16T07:40:59;94607.72;;;15.05;100.00
21828;BME280;11076;47.942;11.804;2022-10-16T07:46:02;94612.03;;;15.18;100.00
21828;BME280;11076;47.942;11.804;2022-10-16T07:51:06;94605.84;;;15.35;100.00
21828;BME280;11076;47.942;11.804;2022-10-16T07:56:09;94619.56;;;15.50;100.00
21828;BME280;11076;47.942;11.804;2022-10-16T08:01:14;94616.13;;;15.71;100.00
21828;BME280;11076;47.942;11.804;2022-10-16T08:06:19;94624.41;;;15.99;100.00
21828;BME280;11076;47.942;11.804;2022-10-16T08:11:23;94630.84;;;16.15;100.00
21828;BME280;11076;47.942;11.804;2022-10-16T08:16:25;94636.03;;;16.38;100.00
21828;BME280;11076;47.942;11.804;2022-10-16T08:21:28;94631.91;;;16.53;100.00
21828;BME280;11076;47.942;11.804;2022-10-16T08:26:30;94641.34;;;16.72;100.00
21828;BME280;11076;47.942;11.804;2022-10-16T08:31:33;94645.88;;;16.88;100.00
21828;BME280;11076;47.942;11.804;2022-10-16T08:36:35;94643.50;;;16.92;100.00
21828;BME280;11076;47.942;11.804;2022-10-16T08:52:15;94660.00;;;17.72;100.00
21828;BME280;11076;47.942;11.804;2022-10-16T08:57:22;94677.31;;;18.03;100.00
21828;BME280;11076;47.942;11.804;2022-10-16T09:02:59;94664.72;;;18.19;100.00
21828;BME280;11076;47.942;11.804;2022-10-16T09:08:46;94670.56;;;18.38;99.90
21828;BME280;11076;47.942;11.804;2022-10-16T09:14:07;94681.53;;;18.64;98.48
21828;BME280;11076;47.942;11.804;2022-10-16T09:19:33;94690.78;;;18.73;96.21
21828;BME280;11076;47.942;11.804;2022-10-16T09:24:39;94683.22;;;18.75;94.46
21828;BME280;11076;47.942;11.804;2022-10-16T09:29:42;94699.59;;;18.91;91.72
21828;BME280;11076;47.942;11.804;2022-10-16T09:34:50;94693.19;;;19.12;89.03
21828;BME280;11076;47.942;11.804;2022-10-16T09:39:54;94690.28;;;19.34;87.24
21828;BME280;11076;47.942;11.804;2022-10-16T09:44:57;94696.00;;;19.43;85.67
21828;BME280;11076;47.942;11.804;2022-10-16T09:50:03;94695.47;;;19.51;84.37
21828;BME280;11076;47.942;11.804;2022-10-16T09:55:16;94680.13;;;19.88;83.87
21828;BME280;11076;47.942;11.804;2022-10-16T10:00:20;94692.88;;;20.18;84.52
21828;BME280;11076;47.942;11.804;2022-10-16T10:05:25;94698.84;;;20.35;82.29
21828;BME280;11076;47.942;11.804;2022-10-16T10:10:30;94700.47;;;20.46;79.93
21828;BME280;11076;47.942;11.804;2022-10-16T10:15:36;94695.03;;;20.67;80.04
21828;BME280;11076;47.942;11.804;2022-10-16T10:20:43;94695.00;;;20.88;79.41
21828;BME280;11076;47.942;11.804;2022-10-16T10:26:06;94688.41;;;21.04;78.70
21828;BME280;11076;47.942;11.804;2022-10-16T10:46:51;94683.91;;;21.44;76.17
21828;BME280;11076;47.942;11.804;2022-10-16T10:57:29;94679.69;;;21.72;72.61
21828;BME280;11076;47.942;11.804;2022-10-16T11:02:41;94685.03;;;21.88;62.86
21828;BME280;11076;47.942;11.804;2022-10-16T11:07:52;94685.75;;;21.98;62.40
21828;BME280;11076;47.942;11.804;2022-10-16T11:13:35;94686.25;;;22.05;58.57
21828;BME280;11076;47.942;11.804;2022-10-16T11:24:05;94681.22;;;22.23;58.24
21828;BME280;11076;47.942;11.804;2022-10-16T11:29:25;94678.41;;;22.38;58.34
21828;BME280;11076;47.942;11.804;2022-10-16T11:34:40;94680.63;;;22.36;57.99
21828;BME280;11076;47.942;11.804;2022-10-16T11:39:45;94675.16;;;22.36;53.25
21828;BME280;11076;47.942;11.804;2022-10-16T11:45:00;94676.44;;;22.44;53.03
21828;BME280;11076;47.942;11.804;2022-10-16T11:55:40;94670.75;;;22.40;50.23
21828;BME280;11076;47.942;11.804;2022-10-16T12:00:51;94666.81;;;22.52;51.42
21828;BME280;11076;47.942;11.804;2022-10-16T12:06:23;94674.38;;;22.60;51.55
21828;BME280;11076;47.942;11.804;2022-10-16T12:16:30;94662.94;;;22.58;48.12
21828;BME280;11076;47.942;11.804;2022-10-16T12:21:32;94660.28;;;22.53;47.95
21828;BME280;11076;47.942;11.804;2022-10-16T12:26:38;94661.34;;;22.57;47.42
21828;BME280;11076;47.942;11.804;2022-10-16T12:31:48;94669.28;;;22.53;48.54
21828;BME280;11076;47.942;11.804;2022-10-16T12:36:55;94668.94;;;22.60;47.61
21828;BME280;11076;47.942;11.804;2022-10-16T12:42:38;94669.31;;;22.77;46.48
21828;BME280;11076;47.942;11.804;2022-10-16T12:47:49;94673.13;;;22.76;46.86
21828;BME280;11076;47.942;11.804;2022-10-16T12:52:54;94662.00;;;22.73;47.46
21828;BME280;11076;47.942;11.804;2022-10-16T13:29:21;94675.84;;;23.06;42.27
21828;BME280;11076;47.942;11.804;2022-10-16T13:34:24;94679.69;;;23.05;43.79
21828;BME280;11076;47.942;11.804;2022-10-16T13:39:29;94676.16;;;23.04;42.59
21828;BME280;11076;47.942;11.804;2022-10-16T13:44:52;94677.78;;;23.00;43.31
21828;BME280;11076;47.942;11.804;2022-10-16T13:50:01;94675.41;;;22.93;44.23
21828;BME280;11076;47.942;11.804;2022-10-16T13:55:12;94677.78;;;23.00;45.17
21828;BME280;11076;47.942;11.804;2022-10-16T14:00:19;94680.47;;;23.05;43.73
21828;BME280;11076;47.942;11.804;2022-10-16T14:05:22;94675.91;;;22.95;43.92
21828;BME280;11076;47.942;11.804;2022-10-16T14:10:29;94679.44;;;22.96;43.36
21828;BME280;11076;47.942;11.804;2022-10-16T14:15:35;94685.03;;;22.86;47.04
21828;BME280;11076;47.942;11.804;2022-10-16T14:20:38;94684.03;;;22.76;49.79
21828;BME280;11076;47.942;11.804;2022-10-16T14:25:40;94689.00;;;22.69;51.37
21828;BME280;11076;47.942;11.804;2022-10-16T14:30:50;94687.44;;;22.63;54.02
21828;BME280;11076;47.942;11.804;2022-10-16T14:36:13;94683.75;;;22.49;55.56
21828;BME280;11076;47.942;11.804;2022-10-16T14:41:20;94686.00;;;22.41;56.73
21828;BME280;11076;47.942;11.804;2022-10-16T14:46:35;94698.06;;;22.30;57.23
21828;BME280;11076;47.942;11.804;2022-10-16T14:51:40;94688.09;;;22.15;56.58
21828;BME280;11076;47.942;11.804;2022-10-16T14:56:52;94692.81;;;22.04;56.72
21828;BME280;11076;47.942;11.804;2022-10-16T15:01:55;94691.00;;;21.90;57.72
21828;BME280;11076;47.942;11.804;2022-10-16T15:06:58;94697.59;;;21.78;58.17
21828;BME280;11076;47.942;11.804;2022-10-16T15:12:00;94696.66;;;21.54;59.12
21828;BME280;11076;47.942;11.804;2022-10-16T15:17:02;94708.41;;;21.34;60.38
21828;BME280;11076;47.942;11.804;2022-10-16T15:22:05;94697.13;;;20.91;61.92
21828;BME280;11076;47.942;11.804;2022-10-16T15:27:07;94698.28;;;20.38;64.80
21828;BME280;11076;47.942;11.804;2022-10-16T15:32:10;94697.22;;;19.88;66.82
21828;BME280;11076;47.942;11.804;2022-10-16T15:37:13;94707.38;;;19.45;68.44
21828;BME280;11076;47.942;11.804;2022-10-16T15:42:15;94723.25;;;19.11;69.84
21828;BME280;11076;47.942;11.804;2022-10-16T15:47:18;94723.41;;;18.88;71.44
21828;BME280;11076;47.942;11.804;2022-10-16T15:52:20;94718.31;;;18.60;72.48
21828;BME280;11076;47.942;11.804;2022-10-16T15:57:23;94729.50;;;18.31;74.08
21828;BME280;11076;47.942;11.804;2022-10-16T16:02:25;94729.28;;;18.05;76.04
21828;BME280;11076;47.942;11.804;2022-10-16T16:07:28;94718.16;;;17.75;77.75
21828;BME280;11076;47.942;11.804;2022-10-16T16:12:30;94731.13;;;17.50;80.09
21828;BME280;11076;47.942;11.804;2022-10-16T16:17:35;94731.16;;;17.28;81.02
21828;BME280;11076;47.942;11.804;2022-10-16T16:22:38;94736.13;;;17.15;81.99
21828;BME280;11076;47.942;11.804;2022-10-16T16:27:40;94737.78;;;16.94;83.82
21828;BME280;11076;47.942;11.804;2022-10-16T16:32:43;94741.47;;;16.70;86.54
21828;BME280;11076;47.942;11.804;2022-10-16T16:37:46;94748.75;;;16.53;87.02
21828;BME280;11076;47.942;11.804;2022-10-16T16:42:49;94752.44;;;16.47;87.55
21828;BME280;11076;47.942;11.804;2022-10-16T16:47:51;94757.88;;;16.30;88.10
21828;BME280;11076;47.942;11.804;2022-10-16T16:52:54;94762.94;;;16.09;89.10
21828;BME280;11076;47.942;11.804;2022-10-16T16:57:56;94770.75;;;15.94;90.29
21828;BME280;11076;47.942;11.804;2022-10-16T17:03:01;94785.09;;;15.83;90.89
21828;BME280;11076;47.942;11.804;2022-10-16T17:08:06;94786.53;;;15.74;91.92
21828;BME280;11076;47.942;11.804;2022-10-16T17:13:09;94788.69;;;15.60;92.76
21828;BME280;11076;47.942;11.804;2022-10-16T17:18:12;94800.69;;;15.52;93.85
21828;BME280;11076;47.942;11.804;2022-10-16T17:23:15;94802.09;;;15.43;94.13
21828;BME280;11076;47.942;11.804;2022-10-16T17:28:18;94817.56;;;15.36;94.29
21828;BME280;11076;47.942;11.804;2022-10-16T17:33:21;94817.94;;;15.27;95.00
21828;BME280;11076;47.942;11.804;2022-10-16T17:38:23;94824.50;;;15.20;95.30
21828;BME280;11076;47.942;11.804;2022-10-16T17:43:26;94833.44;;;15.08;95.72
21828;BME280;11076;47.942;11.804;2022-10-16T17:48:28;94831.22;;;15.05;96.69
21828;BME280;11076;47.942;11.804;2022-10-16T17:53:31;94845.16;;;15.02;96.04
21828;BME280;11076;47.942;11.804;2022-10-16T17:58:33;94855.34;;;14.88;97.22
21828;BME280;11076;47.942;11.804;2022-10-16T18:03:36;94860.00;;;14.81;98.12
21828;BME280;11076;47.942;11.804;2022-10-16T18:08:38;94863.66;;;14.75;99.12
21828;BME280;11076;47.942;11.804;2022-10-16T18:13:40;94870.06;;;14.74;99.18
21828;BME280;11076;47.942;11.804;2022-10-16T18:18:43;94863.03;;;14.61;99.24
21828;BME280;11076;47.942;11.804;2022-10-16T18:23:46;94861.47;;;14.53;100.00
21828;BME280;11076;47.942;11.804;2022-10-16T18:28:54;94865.56;;;14.44;100.00
21828;BME280;11076;47.942;11.804;2022-10-16T18:33:57;94869.88;;;14.45;100.00
21828;BME280;11076;47.942;11.804;2022-10-16T18:39:03;94869.63;;;14.35;100.00
21828;BME280;11076;47.942;11.804;2022-10-16T18:44:10;94873.69;;;14.26;100.00
21828;BME280;11076;47.942;11.804;2022-10-16T18:49:14;94878.13;;;14.20;100.00
21828;BME280;11076;47.942;11.804;2022-10-16T18:54:16;94881.34;;;14.10;100.00
21828;BME280;11076;47.942;11.804;2022-10-16T18:59:19;94889.75;;;14.02;100.00
21828;BME280;11076;47.942;11.804;2022-10-16T19:04:22;94879.53;;;13.92;100.00
21828;BME280;11076;47.942;11.804;2022-10-16T19:09:25;94892.47;;;13.84;100.00
21828;BME280;11076;47.942;11.804;2022-10-16T19:14:27;94891.38;;;13.73;100.00
21828;BME280;11076;47.942;11.804;2022-10-16T19:19:31;94897.13;;;13.58;100.00
21828;BME280;11076;47.942;11.804;2022-10-16T19:24:33;94893.13;;;13.49;100.00
21828;BME280;11076;47.942;11.804;2022-10-16T19:29:36;94900.44;;;13.42;100.00
21828;BME280;11076;47.942;11.804;2022-10-16T19:34:38;94906.38;;;13.25;100.00
21828;BME280;11076;47.942;11.804;2022-10-16T19:39:40;94909.47;;;13.22;100.00
21828;BME280;11076;47.942;11.804;2022-10-16T19:44:43;94912.69;;;13.12;100.00
21828;BME280;11076;47.942;11.804;2022-10-16T19:49:45;94909.84;;;13.07;100.00
21828;BME280;11076;47.942;11.804;2022-10-16T19:54:48;94925.25;;;12.93;100.00
21828;BME280;11076;47.942;11.804;2022-10-16T19:59:51;94916.66;;;12.85;100.00
21828;BME280;11076;47.942;11.804;2022-10-16T20:04:54;94930.94;;;12.79;100.00
21828;BME280;11076;47.942;11.804;2022-10-16T20:09:56;94919.88;;;12.68;100.00
21828;BME280;11076;47.942;11.804;2022-10-16T20:14:59;94924.66;;;12.66;100.00
21828;BME280;11076;47.942;11.804;2022-10-16T20:20:01;94923.06;;;12.59;100.00
21828;BME280;11076;47.942;11.804;2022-10-16T20:25:04;94930.50;;;12.57;100.00
21828;BME280;11076;47.942;11.804;2022-10-16T20:30:07;94945.44;;;12.46;100.00
21828;BME280;11076;47.942;11.804;2022-10-16T20:35:09;94944.84;;;12.44;100.00
21828;BME280;11076;47.942;11.804;2022-10-16T20:40:12;94950.03;;;12.39;100.00
21828;BME280;11076;47.942;11.804;2022-10-16T20:45:14;94947.72;;;12.42;100.00
21828;BME280;11076;47.942;11.804;2022-10-16T20:50:16;94956.63;;;12.36;100.00
21828;BME280;11076;47.942;11.804;2022-10-16T20:55:19;94953.00;;;12.24;100.00
21828;BME280;11076;47.942;11.804;2022-10-16T21:00:22;94960.06;;;12.11;100.00
21828;BME280;11076;47.942;11.804;2022-10-16T21:05:24;94962.63;;;12.00;100.00
21828;BME280;11076;47.942;11.804;2022-10-16T21:10:29;94964.50;;;11.86;100.00
21828;BME280;11076;47.942;11.804;2022-10-16T21:15:32;94974.63;;;11.84;100.00
21828;BME280;11076;47.942;11.804;2022-10-16T21:20:34;94969.66;;;11.81;100.00
21828;BME280;11076;47.942;11.804;2022-10-16T21:25:36;94968.66;;;11.75;100.00
21828;BME280;11076;47.942;11.804;2022-10-16T21:30:39;94972.63;;;11.66;100.00
21828;BME280;11076;47.942;11.804;2022-10-16T21:35:41;94974.91;;;11.49;100.00
21828;BME280;11076;47.942;11.804;2022-10-16T21:40:44;94973.50;;;11.40;100.00
21828;BME280;11076;47.942;11.804;2022-10-16T21:45:46;94977.63;;;11.35;100.00
21828;BME280;11076;47.942;11.804;2022-10-16T21:50:49;94972.69;;;11.32;100.00
21828;BME280;11076;47.942;11.804;2022-10-16T21:55:51;94985.88;;;11.27;100.00
21828;BME280;11076;47.942;11.804;2022-10-16T22:00:53;94989.59;;;11.20;100.00
21828;BME280;11076;47.942;11.804;2022-10-16T22:06:00;94984.66;;;11.10;100.00
21828;BME280;11076;47.942;11.804;2022-10-16T22:11:09;94984.47;;;11.05;100.00
21828;BME280;11076;47.942;11.804;2022-10-16T22:16:11;94990.22;;;11.02;100.00
21828;BME280;11076;47.942;11.804;2022-10-16T22:21:14;94990.03;;;10.97;100.00
21828;BME280;11076;47.942;11.804;2022-10-16T22:26:17;94985.09;;;10.93;100.00
21828;BME280;11076;47.942;11.804;2022-10-16T22:31:19;94983.66;;;10.84;100.00
21828;BME280;11076;47.942;11.804;2022-10-16T22:36:23;94985.50;;;10.77;100.00
21828;BME280;11076;47.942;11.804;2022-10-16T22:41:25;94984.25;;;10.66;100.00
21828;BME280;11076;47.942;11.804;2022-10-16T22:46:29;94970.25;;;10.64;100.00
21828;BME280;11076;47.942;11.804;2022-10-16T22:51:31;94970.25;;;10.58;100.00
21828;BME280;11076;47.942;11.804;2022-10-16T22:56:34;94975.00;;;10.55;100.00
21828;BME280;11076;47.942;11.804;2022-10-16T23:01:40;94972.13;;;10.50;100.00
21828;BME280;11076;47.942;11.804;2022-10-16T23:06:43;94973.13;;;10.43;100.00
21828;BME280;11076;47.942;11.804;2022-10-16T23:11:45;94969.81;;;10.34;100.00
21828;BME280;11076;47.942;11.804;2022-10-16T23:16:48;94964.00;;;10.24;100.00
21828;BME280;11076;47.942;11.804;2022-10-16T23:21:50;94963.16;;;10.16;100.00
21828;BME280;11076;47.942;11.804;2022-10-16T23:26:53;94965.44;;;10.20;100.00
21828;BME280;11076;47.942;11.804;2022-10-16T23:31:56;94966.69;;;10.17;100.00
21828;BME280;11076;47.942;11.804;2022-10-16T23:36:58;94973.44;;;10.13;100.00
21828;BME280;11076;47.942;11.804;2022-10-16T23:42:00;94975.69;;;10.09;100.00
21828;BME280;11076;47.942;11.804;2022-10-16T23:47:03;94977.53;;;10.02;100.00
21828;BME280;11076;47.942;11.804;2022-10-16T23:52:05;94978.13;;;9.98;100.00
21828;BME280;11076;47.942;11.804;2022-10-16T23:57:08;94984.91;;;9.93;100.00
